Time;durP1;ratioP1;P1;durP2;ratioP2;P2;SDS_P1;SDS_P2;PMS_P1;PMS_P2;Temp;Humidity;BMP_temperature;BMP_pressure;BME280_temperature;BME280_humidity;BME280_pressure;Samples;Min_cycle;Max_cycle;Signal;HPM_P1;HPM_P2
2021/05/21 00:00:42;;;;;;;1.10;1.00;;;11.70;77.00;;;;;;5040515;28;20030;-71
2021/05/21 00:03:08;;;;;;;1.17;0.88;;;11.70;77.40;;;;;;5042103;28;20637;-71
2021/05/21 00:05:34;;;;;;;0.85;0.85;;;11.70;77.40;;;;;;5040677;28;20335;-71
2021/05/21 00:07:59;;;;;;;1.10;0.90;;;11.70;77.50;;;;;;5017875;28;20038;-71
2021/05/21 00:10:25;;;;;;;1.88;0.82;;;11.70;77.50;;;;;;5039664;28;20026;-71
2021/05/21 00:12:52;;;;;;;1.85;1.00;;;11.70;77.90;;;;;;5041213;28;20038;-72
2021/05/21 00:15:18;;;;;;;1.92;1.15;;;11.60;78.20;;;;;;5040072;28;20476;-71
2021/05/21 00:17:44;;;;;;;1.48;1.08;;;11.60;78.70;;;;;;5037249;28;20108;-71
2021/05/21 00:20:11;;;;;;;0.90;0.80;;;11.60;79.00;;;;;;5035123;28;20787;-72
2021/05/21 00:22:36;;;;;;;2.03;1.20;;;11.50;80.20;;;;;;5039690;28;20043;-72
2021/05/21 00:25:03;;;;;;;2.08;0.95;;;11.40;80.40;;;;;;5021414;28;20438;-72
2021/05/21 00:27:29;;;;;;;2.40;1.02;;;11.40;81.10;;;;;;5036856;28;20120;-72
2021/05/21 00:29:54;;;;;;;1.55;0.98;;;11.40;80.60;;;;;;5038743;28;20068;-72
2021/05/21 00:32:20;;;;;;;1.73;0.80;;;11.40;80.90;;;;;;5040223;28;20115;-72
2021/05/21 00:34:46;;;;;;;2.00;1.10;;;11.30;80.60;;;;;;5041673;28;20033;-72
2021/05/21 00:37:11;;;;;;;2.33;1.10;;;11.30;80.40;;;;;;5044133;28;20092;-72
2021/05/21 00:39:37;;;;;;;2.65;1.17;;;11.30;80.10;;;;;;5039346;28;20083;-72
2021/05/21 00:42:03;;;;;;;1.60;0.90;;;11.30;80.90;;;;;;5041865;28;20032;-72
2021/05/21 00:44:28;;;;;;;4.03;1.10;;;11.30;82.20;;;;;;5040089;28;20067;-72
2021/05/21 00:46:54;;;;;;;1.40;1.00;;;11.30;83.20;;;;;;5039592;28;20451;-72
2021/05/21 00:49:20;;;;;;;3.08;1.08;;;11.30;82.40;;;;;;5040138;28;20034;-72
2021/05/21 00:51:48;;;;;;;4.50;1.27;;;11.20;82.40;;;;;;5043675;28;20084;-71
2021/05/21 00:54:17;;;;;;;2.45;1.10;;;11.20;84.30;;;;;;5041055;28;20033;-72
2021/05/21 00:56:43;;;;;;;1.30;1.20;;;11.20;83.50;;;;;;5042199;28;20132;-72
2021/05/21 00:59:09;;;;;;;1.10;1.00;;;11.10;84.50;;;;;;5041252;28;20033;-72
2021/05/21 01:01:36;;;;;;;1.15;1.05;;;11.10;84.70;;;;;;5043781;28;20083;-72
2021/05/21 01:04:02;;;;;;;2.05;1.30;;;11.00;85.00;;;;;;5042967;28;20069;-72
2021/05/21 01:06:28;;;;;;;1.13;1.00;;;11.00;85.80;;;;;;5040569;28;20474;-72
2021/05/21 01:08:57;;;;;;;1.30;1.00;;;11.00;87.00;;;;;;5021617;28;20084;-72
2021/05/21 01:11:24;;;;;;;3.55;0.98;;;11.00;84.70;;;;;;5043883;28;20029;-72
2021/05/21 01:13:50;;;;;;;2.90;0.90;;;11.00;83.50;;;;;;5040007;28;20025;-73
2021/05/21 01:16:16;;;;;;;3.30;0.93;;;11.10;83.30;;;;;;5044338;28;20040;-72
2021/05/21 01:18:42;;;;;;;2.13;0.75;;;11.10;82.70;;;;;;5042829;28;20033;-71
2021/05/21 01:21:08;;;;;;;2.47;0.85;;;11.10;81.30;;;;;;5043763;28;20099;-72
2021/05/21 01:23:33;;;;;;;1.30;0.70;;;11.20;80.40;;;;;;5052519;28;20048;-72
2021/05/21 01:25:59;;;;;;;0.80;0.80;;;11.20;80.20;;;;;;5052581;28;20052;-71
2021/05/21 01:28:25;;;;;;;1.70;0.88;;;11.20;81.60;;;;;;5043410;28;20037;-71
2021/05/21 01:30:51;;;;;;;1.85;1.08;;;11.30;81.80;;;;;;5040957;28;20031;-72
2021/05/21 01:33:17;;;;;;;1.40;1.02;;;11.30;83.80;;;;;;5053000;28;20112;-71
2021/05/21 01:35:43;;;;;;;1.67;1.25;;;11.20;84.00;;;;;;5053272;28;20112;-71
2021/05/21 01:38:12;;;;;;;1.88;1.20;;;11.20;84.60;;;;;;5036509;28;20029;-70
2021/05/21 01:40:38;;;;;;;1.35;0.88;;;11.10;85.70;;;;;;5046806;28;20100;-71
2021/05/21 01:43:04;;;;;;;2.58;1.08;;;11.00;86.90;;;;;;5053636;28;20025;-72
2021/05/21 01:45:31;;;;;;;3.10;1.10;;;11.00;84.40;;;;;;5044904;28;20083;-71
2021/05/21 01:47:57;;;;;;;1.48;1.10;;;11.00;83.70;;;;;;5038217;28;20513;-72
2021/05/21 01:50:23;;;;;;;1.92;1.05;;;11.00;84.90;;;;;;5035138;28;20423;-72
2021/05/21 01:52:49;;;;;;;0.93;0.70;;;11.00;84.50;;;;;;5044755;28;20033;-71
2021/05/21 01:55:15;;;;;;;1.23;0.80;;;11.00;83.60;;;;;;5037497;28;20211;-71
2021/05/21 01:57:41;;;;;;;1.05;0.80;;;11.00;81.70;;;;;;5047850;28;20124;-71
2021/05/21 02:00:09;;;;;;;1.52;0.80;;;11.10;80.90;;;;;;5038401;28;20397;-71
2021/05/21 02:02:36;;;;;;;0.95;0.80;;;11.20;80.00;;;;;;5052981;28;20032;-71
2021/05/21 02:05:02;;;;;;;1.42;0.80;;;11.30;78.90;;;;;;5045741;28;20037;-72
2021/05/21 02:07:28;;;;;;;0.65;0.60;;;11.30;78.80;;;;;;5051621;28;20458;-71
2021/05/21 02:09:59;;;;;;;1.38;0.80;;;11.40;78.50;;;;;;5042796;28;20049;-72
2021/05/21 02:12:26;;;;;;;1.33;0.70;;;11.40;77.90;;;;;;5036478;28;20538;-71
2021/05/21 02:14:53;;;;;;;1.60;0.73;;;11.40;77.70;;;;;;5051319;28;20071;-71
2021/05/21 02:17:19;;;;;;;1.90;0.90;;;11.50;77.50;;;;;;5038717;28;20078;-71
2021/05/21 02:19:44;;;;;;;3.15;0.82;;;11.50;76.90;;;;;;5037118;28;20405;-71
2021/05/21 02:22:11;;;;;;;1.88;0.73;;;11.50;76.90;;;;;;5047837;28;20048;-71
2021/05/21 02:24:37;;;;;;;1.02;0.50;;;11.60;76.90;;;;;;5036033;28;20041;-71
2021/05/21 02:27:03;;;;;;;0.80;0.77;;;11.50;76.50;;;;;;5043915;28;20039;-71
2021/05/21 02:29:29;;;;;;;1.33;0.80;;;11.50;76.40;;;;;;5045587;28;20433;-71
2021/05/21 02:31:55;;;;;;;1.02;0.68;;;11.60;76.10;;;;;;5040800;28;20033;-72
2021/05/21 02:34:21;;;;;;;1.70;1.35;;;11.60;76.30;;;;;;5052812;28;20375;-71
2021/05/21 02:36:47;;;;;;;2.38;0.80;;;11.50;76.50;;;;;;5049241;28;20036;-71
2021/05/21 02:39:13;;;;;;;2.15;0.70;;;11.60;76.20;;;;;;5035675;28;20037;-71
2021/05/21 02:41:38;;;;;;;2.08;0.60;;;11.60;76.20;;;;;;5036267;28;20029;-71
2021/05/21 02:44:04;;;;;;;1.00;0.60;;;11.50;76.40;;;;;;5044860;28;20436;-71
2021/05/21 02:46:30;;;;;;;2.17;0.80;;;11.60;76.20;;;;;;5052035;28;20057;-71
2021/05/21 02:48:56;;;;;;;1.90;0.55;;;11.50;76.20;;;;;;5050310;28;20051;-72
2021/05/21 02:51:21;;;;;;;1.90;0.60;;;11.50;76.30;;;;;;5042423;28;20040;-71
2021/05/21 02:53:47;;;;;;;0.93;0.55;;;11.50;76.50;;;;;;5019382;28;20021;-71
2021/05/21 02:56:12;;;;;;;2.58;0.93;;;11.50;76.60;;;;;;5050186;28;20038;-72
2021/05/21 02:58:38;;;;;;;1.42;0.82;;;11.50;76.50;;;;;;5018879;28;20038;-74
2021/05/21 03:01:04;;;;;;;6.03;1.02;;;11.50;76.60;;;;;;5049857;28;20025;-71
2021/05/21 03:03:30;;;;;;;0.82;0.77;;;11.40;76.70;;;;;;5034685;28;20076;-70
2021/05/21 03:05:56;;;;;;;4.50;0.73;;;11.40;76.60;;;;;;5040846;28;20037;-72
2021/05/21 03:08:22;;;;;;;3.33;0.55;;;11.40;76.60;;;;;;5034757;28;20029;-72
2021/05/21 03:10:48;;;;;;;0.65;0.60;;;11.40;76.40;;;;;;5045622;28;20030;-72
2021/05/21 03:13:14;;;;;;;1.73;0.68;;;11.40;76.60;;;;;;5044090;28;20034;-71
2021/05/21 03:15:42;;;;;;;1.50;0.80;;;11.40;76.70;;;;;;5035441;28;20056;-71
2021/05/21 03:18:18;;;;;;;0.63;0.60;;;11.40;76.50;;;;;;5043868;28;20462;-72
2021/05/21 03:20:44;;;;;;;3.40;0.55;;;11.40;76.60;;;;;;5039642;28;20030;-71
2021/05/21 03:23:10;;;;;;;1.05;0.90;;;11.40;76.70;;;;;;5037237;28;20025;-72
2021/05/21 03:25:37;;;;;;;0.88;0.77;;;11.40;76.80;;;;;;5051270;28;20029;-71
2021/05/21 03:28:03;;;;;;;1.27;0.77;;;11.40;76.50;;;;;;5053059;28;20057;-71
2021/05/21 03:30:28;;;;;;;1.98;0.60;;;11.40;76.00;;;;;;5040715;28;20034;-71
2021/05/21 03:32:54;;;;;;;1.02;0.55;;;11.40;75.70;;;;;;5030702;28;20082;-72
2021/05/21 03:35:20;;;;;;;0.70;0.60;;;11.40;75.70;;;;;;5039090;28;20021;-71
2021/05/21 03:37:45;;;;;;;0.70;0.70;;;11.50;75.80;;;;;;5029132;28;20446;-72
2021/05/21 03:40:12;;;;;;;0.93;0.57;;;11.50;75.60;;;;;;5043839;28;20028;-71
2021/05/21 03:42:37;;;;;;;1.05;0.80;;;11.40;75.40;;;;;;5053870;28;20075;-71
2021/05/21 03:45:05;;;;;;;1.35;0.80;;;11.40;76.20;;;;;;5048081;28;20032;-71
2021/05/21 03:47:32;;;;;;;1.75;0.60;;;11.40;75.40;;;;;;5049124;28;20083;-71
2021/05/21 03:49:58;;;;;;;1.95;0.80;;;11.50;75.30;;;;;;5043651;28;20501;-72
2021/05/21 03:52:24;;;;;;;1.38;0.95;;;11.50;75.30;;;;;;5043760;28;20037;-71
2021/05/21 03:54:50;;;;;;;0.63;0.55;;;11.40;75.40;;;;;;5033139;28;20386;-71
2021/05/21 03:57:16;;;;;;;1.42;0.63;;;11.40;75.50;;;;;;5040997;28;20052;-71
2021/05/21 03:59:42;;;;;;;1.23;0.70;;;11.40;75.40;;;;;;5051522;28;20444;-71
2021/05/21 04:02:07;;;;;;;2.60;0.65;;;11.40;75.20;;;;;;5047159;28;20033;-71
2021/05/21 04:04:33;;;;;;;3.88;0.80;;;11.50;74.90;;;;;;5048713;28;20489;-71
2021/05/21 04:06:59;;;;;;;4.15;0.70;;;11.60;74.70;;;;;;5042061;28;20033;-72
2021/05/21 04:09:25;;;;;;;1.80;0.70;;;11.60;74.70;;;;;;5047642;28;20119;-71
2021/05/21 04:11:50;;;;;;;1.05;0.68;;;11.60;74.30;;;;;;5033832;28;20021;-71
2021/05/21 04:14:17;;;;;;;1.30;0.70;;;11.60;74.80;;;;;;5054001;28;20029;-71
2021/05/21 04:16:42;;;;;;;2.20;0.80;;;11.60;74.00;;;;;;5052816;28;20033;-71
2021/05/21 04:19:08;;;;;;;1.55;0.70;;;11.60;74.20;;;;;;5049242;28;20029;-71
2021/05/21 04:21:35;;;;;;;0.50;0.50;;;11.70;74.40;;;;;;5038568;28;20489;-71
2021/05/21 04:24:01;;;;;;;2.42;0.63;;;11.70;74.30;;;;;;5039421;28;20109;-71
2021/05/21 04:26:27;;;;;;;2.75;0.63;;;11.70;73.60;;;;;;5024795;28;20095;-71
2021/05/21 04:28:52;;;;;;;0.85;0.40;;;11.80;73.10;;;;;;5032708;28;20037;-71
2021/05/21 04:31:18;;;;;;;2.33;0.65;;;11.80;72.80;;;;;;5039626;28;20017;-72
2021/05/21 04:33:44;;;;;;;1.80;0.70;;;11.80;72.50;;;;;;5034159;28;20378;-71
2021/05/21 04:36:10;;;;;;;1.02;0.70;;;11.90;72.50;;;;;;5052854;28;20025;-71
2021/05/21 04:38:36;;;;;;;1.10;0.60;;;11.90;72.40;;;;;;5052429;28;20036;-71
2021/05/21 04:41:03;;;;;;;0.98;0.60;;;11.90;72.40;;;;;;5049101;28;20081;-72
2021/05/21 04:43:29;;;;;;;1.65;0.60;;;11.90;72.40;;;;;;5025236;28;20449;-71
2021/05/21 04:45:55;;;;;;;1.30;0.50;;;12.00;71.80;;;;;;5043094;28;20090;-71
2021/05/21 04:48:21;;;;;;;2.53;0.70;;;12.10;72.00;;;;;;5042414;28;20467;-71
2021/05/21 04:50:47;;;;;;;0.93;0.50;;;12.10;71.00;;;;;;5048240;28;20099;-72
2021/05/21 04:53:14;;;;;;;1.35;1.13;;;12.20;70.90;;;;;;5050751;28;20078;-71
2021/05/21 04:55:43;;;;;;;0.30;0.30;;;12.20;70.60;;;;;;5063959;28;20036;-71
2021/05/21 04:58:09;;;;;;;1.88;0.40;;;12.30;70.10;;;;;;5044629;28;20156;-70
2021/05/21 05:00:36;;;;;;;0.63;0.43;;;12.40;69.40;;;;;;5063918;28;20035;-71
2021/05/21 05:03:06;;;;;;;3.58;0.60;;;12.50;69.00;;;;;;5025292;28;20029;-72
2021/05/21 05:05:32;;;;;;;2.55;0.63;;;12.60;68.90;;;;;;5044661;28;20037;-71
2021/05/21 05:07:58;;;;;;;1.95;0.50;;;12.70;68.50;;;;;;5051009;28;20044;-71
2021/05/21 05:10:24;;;;;;;1.05;0.45;;;12.70;68.30;;;;;;5048613;28;20417;-71
2021/05/21 05:12:51;;;;;;;1.35;0.50;;;12.80;68.10;;;;;;5043252;28;20113;-72
2021/05/21 05:15:17;;;;;;;1.02;0.57;;;12.80;68.00;;;;;;5045708;28;20021;-71
2021/05/21 05:17:43;;;;;;;1.17;0.63;;;12.80;67.60;;;;;;5048770;28;20043;-70
2021/05/21 05:20:09;;;;;;;1.58;0.70;;;12.90;68.00;;;;;;5029332;28;20034;-71
2021/05/21 05:22:35;;;;;;;0.55;0.55;;;12.90;67.60;;;;;;5038426;28;20036;-71
2021/05/21 05:25:01;;;;;;;0.80;0.40;;;13.00;67.40;;;;;;5055427;28;20021;-71
2021/05/21 05:27:26;;;;;;;1.00;0.40;;;13.10;67.10;;;;;;5055041;28;20029;-71
2021/05/21 05:29:52;;;;;;;1.77;0.98;;;13.20;66.50;;;;;;5056853;28;20033;-71
2021/05/21 05:32:18;;;;;;;1.50;0.60;;;13.30;66.30;;;;;;5055695;28;20037;-71
2021/05/21 05:34:44;;;;;;;1.38;0.70;;;13.30;65.90;;;;;;5047214;28;20055;-72
2021/05/21 05:37:10;;;;;;;3.20;0.60;;;13.30;65.70;;;;;;5060053;28;20029;-72
2021/05/21 05:39:35;;;;;;;4.10;0.50;;;13.40;65.60;;;;;;5062844;28;20025;-71
2021/05/21 05:42:01;;;;;;;0.70;0.65;;;13.40;65.40;;;;;;5039530;28;20021;-71
2021/05/21 05:44:29;;;;;;;1.98;0.50;;;13.40;65.60;;;;;;5055958;28;20029;-72
2021/05/21 05:46:54;;;;;;;2.25;0.60;;;13.50;65.50;;;;;;5066616;28;20020;-71
2021/05/21 05:49:20;;;;;;;2.80;0.52;;;13.50;65.30;;;;;;5063639;28;20091;-72
2021/05/21 05:51:45;;;;;;;1.60;0.50;;;13.50;65.30;;;;;;5051362;28;20051;-72
2021/05/21 05:54:11;;;;;;;0.60;0.60;;;13.60;65.30;;;;;;5060816;28;20033;-73
2021/05/21 05:56:37;;;;;;;3.53;0.70;;;13.70;64.90;;;;;;5063572;28;20050;-73
2021/05/21 05:59:02;;;;;;;3.10;0.70;;;13.70;65.70;;;;;;5045247;28;20029;-76
2021/05/21 06:01:28;;;;;;;1.83;0.50;;;13.80;64.30;;;;;;5047405;28;20013;-74
2021/05/21 06:03:54;;;;;;;1.58;0.50;;;13.90;64.40;;;;;;5056842;28;20014;-76
2021/05/21 06:06:19;;;;;;;2.05;0.75;;;14.00;64.70;;;;;;5061263;28;20017;-74
2021/05/21 06:08:45;;;;;;;0.40;0.40;;;14.10;64.60;;;;;;5054522;28;20095;-71
2021/05/21 06:11:11;;;;;;;5.88;0.80;;;14.20;63.50;;;;;;5070592;28;20059;-72
2021/05/21 06:13:36;;;;;;;1.85;0.57;;;14.30;63.40;;;;;;5049043;28;20036;-68
2021/05/21 06:16:02;;;;;;;5.45;0.80;;;14.40;63.00;;;;;;5058326;28;20024;-76
2021/05/21 06:18:28;;;;;;;1.20;0.57;;;14.50;62.70;;;;;;5069570;28;20024;-70
2021/05/21 06:20:53;;;;;;;2.63;0.60;;;14.60;62.30;;;;;;5062343;28;20006;-73
2021/05/21 06:23:19;;;;;;;1.48;0.70;;;14.70;61.90;;;;;;5054344;28;20033;-73
2021/05/21 06:28:13;;;;;;;1.25;0.65;;;14.70;61.80;;;;;;5067812;28;20032;-73
2021/05/21 06:30:38;;;;;;;1.02;0.60;;;14.70;62.00;;;;;;5065957;28;20022;-73
2021/05/21 06:33:04;;;;;;;2.47;0.80;;;14.80;61.90;;;;;;5075821;28;20080;-72
2021/05/21 06:35:30;;;;;;;2.33;1.13;;;14.80;61.80;;;;;;5040239;28;20057;-72
2021/05/21 06:37:56;;;;;;;0.90;0.60;;;14.80;62.00;;;;;;5056629;28;20029;-73
2021/05/21 06:40:22;;;;;;;2.45;0.65;;;14.80;62.00;;;;;;5057609;28;20026;-72
2021/05/21 06:42:48;;;;;;;3.70;1.00;;;14.90;62.10;;;;;;5073945;28;20035;-72
2021/05/21 06:45:15;;;;;;;2.28;0.57;;;14.90;62.00;;;;;;5074426;28;20078;-73
2021/05/21 06:47:41;;;;;;;2.00;0.82;;;14.90;61.80;;;;;;5059045;28;20096;-73
2021/05/21 06:50:07;;;;;;;2.10;0.77;;;14.90;61.60;;;;;;5055928;28;20032;-71
2021/05/21 06:52:33;;;;;;;1.55;0.60;;;14.90;61.80;;;;;;5065264;28;20040;-73
2021/05/21 06:54:59;;;;;;;5.15;0.70;;;15.00;61.60;;;;;;5051915;28;20038;-71
2021/05/21 06:57:25;;;;;;;3.05;0.80;;;15.00;61.60;;;;;;5062335;28;20056;-72
2021/05/21 06:59:51;;;;;;;2.92;0.68;;;15.10;61.70;;;;;;5046649;28;20037;-74
2021/05/21 07:02:16;;;;;;;2.05;0.50;;;15.10;61.60;;;;;;5061766;28;20032;-73
2021/05/21 07:04:42;;;;;;;2.38;0.68;;;15.20;61.60;;;;;;5074042;28;20029;-73
2021/05/21 07:07:08;;;;;;;3.95;0.70;;;15.10;61.80;;;;;;5062370;28;20029;-73
2021/05/21 07:09:34;;;;;;;4.65;1.27;;;15.20;61.90;;;;;;5053067;28;20046;-71
2021/05/21 07:11:59;;;;;;;1.85;0.73;;;15.20;62.00;;;;;;5048841;28;20429;-73
2021/05/21 07:14:25;;;;;;;1.98;0.50;;;15.20;62.10;;;;;;5054741;28;20394;-72
2021/05/21 07:16:51;;;;;;;3.63;0.90;;;15.20;62.10;;;;;;5065828;28;20028;-71
2021/05/21 07:19:18;;;;;;;3.28;0.70;;;15.10;62.50;;;;;;5039702;28;20129;-73
2021/05/21 07:21:47;;;;;;;3.38;1.05;;;15.10;62.40;;;;;;5041420;28;20029;-72
2021/05/21 07:24:13;;;;;;;2.35;0.75;;;15.10;62.70;;;;;;5033008;28;20432;-72
2021/05/21 07:26:39;;;;;;;3.78;0.88;;;15.10;62.70;;;;;;5041297;28;20108;-73
2021/05/21 07:29:06;;;;;;;4.97;0.80;;;15.10;62.50;;;;;;5017663;28;20045;-72
2021/05/21 07:31:32;;;;;;;2.72;0.70;;;15.10;63.00;;;;;;5048087;28;20028;-72
2021/05/21 07:33:58;;;;;;;3.35;0.80;;;15.10;62.60;;;;;;5049521;28;20021;-72
2021/05/21 07:36:28;;;;;;;4.95;0.70;;;15.10;62.40;;;;;;5054935;28;20117;-72
2021/05/21 07:38:55;;;;;;;1.90;1.10;;;15.10;62.20;;;;;;5041416;28;20053;-72
2021/05/21 07:41:22;;;;;;;2.03;0.57;;;15.10;62.50;;;;;;5036289;28;20044;-72
2021/05/21 07:43:49;;;;;;;1.88;0.80;;;15.10;62.50;;;;;;5039495;28;20056;-72
2021/05/21 07:46:15;;;;;;;1.75;0.85;;;15.10;62.80;;;;;;5054818;28;20037;-72
2021/05/21 07:48:43;;;;;;;4.72;0.93;;;15.00;62.80;;;;;;5022398;28;20111;-71
2021/05/21 07:51:09;;;;;;;1.15;0.60;;;15.10;63.00;;;;;;5038079;28;20347;-71
2021/05/21 07:53:35;;;;;;;3.80;0.73;;;15.10;62.70;;;;;;5043574;28;20078;-72
2021/05/21 07:56:03;;;;;;;4.07;1.27;;;15.10;62.80;;;;;;5047005;28;20041;-72
2021/05/21 07:58:30;;;;;;;2.80;0.80;;;15.10;62.60;;;;;;5036978;28;20053;-72
2021/05/21 08:00:55;;;;;;;1.20;0.90;;;15.10;62.60;;;;;;5037076;28;20033;-72
2021/05/21 08:03:21;;;;;;;4.97;0.70;;;15.20;62.60;;;;;;5054464;28;20047;-72
2021/05/21 08:05:47;;;;;;;1.95;0.57;;;15.20;62.40;;;;;;5038776;28;20034;-71
2021/05/21 08:08:21;;;;;;;1.73;0.60;;;15.30;61.90;;;;;;5046430;28;20033;-72
2021/05/21 08:10:51;;;;;;;2.83;1.10;;;15.40;61.70;;;;;;5055640;28;20095;-72
2021/05/21 08:13:17;;;;;;;3.40;1.02;;;15.40;61.60;;;;;;5052821;28;20378;-72
2021/05/21 08:15:42;;;;;;;1.70;0.90;;;15.50;61.60;;;;;;5050640;28;20041;-72
2021/05/21 08:18:08;;;;;;;1.30;0.82;;;15.50;61.20;;;;;;5051596;28;20478;-71
2021/05/21 08:20:34;;;;;;;0.85;0.50;;;15.50;61.40;;;;;;5036978;28;20386;-72
2021/05/21 08:23:00;;;;;;;3.13;0.80;;;15.50;61.50;;;;;;5055470;28;20029;-72
2021/05/21 08:25:26;;;;;;;2.45;0.82;;;15.50;61.30;;;;;;5047586;28;20025;-72
2021/05/21 08:27:53;;;;;;;1.58;0.73;;;15.50;61.30;;;;;;5042121;28;20029;-71
2021/05/21 08:30:20;;;;;;;1.73;0.60;;;15.60;60.90;;;;;;5040672;28;20151;-71
2021/05/21 08:32:48;;;;;;;5.68;0.70;;;15.70;61.40;;;;;;5043185;28;20043;-72
2021/05/21 08:35:14;;;;;;;0.70;0.63;;;15.60;61.70;;;;;;5031423;28;20029;-71
2021/05/21 08:37:40;;;;;;;1.63;0.63;;;15.60;61.80;;;;;;5046829;28;20032;-71
2021/05/21 08:40:07;;;;;;;1.92;0.68;;;15.70;61.80;;;;;;5053497;28;20037;-70
2021/05/21 08:42:37;;;;;;;2.58;0.65;;;15.70;61.30;;;;;;5055224;28;20072;-72
2021/05/21 08:45:05;;;;;;;0.95;0.50;;;15.70;61.00;;;;;;5046370;28;20033;-73
2021/05/21 08:47:34;;;;;;;2.80;0.80;;;15.70;61.10;;;;;;5022809;28;20474;-71
2021/05/21 08:50:08;;;;;;;3.53;0.70;;;15.80;61.50;;;;;;5040987;28;20037;-74
2021/05/21 08:52:34;;;;;;;1.60;0.57;;;15.80;61.00;;;;;;5039928;28;20095;-74
2021/05/21 08:55:00;;;;;;;2.25;0.50;;;15.80;60.90;;;;;;5048780;28;20430;-73
2021/05/21 08:57:30;;;;;;;1.83;0.68;;;15.90;60.80;;;;;;5030636;28;20045;-73
2021/05/21 08:59:55;;;;;;;1.10;0.50;;;15.80;61.20;;;;;;5040282;28;20496;-73
2021/05/21 09:02:26;;;;;;;3.75;1.10;;;15.80;61.70;;;;;;5030937;28;20029;-73
2021/05/21 09:05:00;;;;;;;5.97;0.82;;;15.90;61.70;;;;;;5050592;28;20045;-73
2021/05/21 09:07:31;;;;;;;2.55;0.90;;;15.90;62.00;;;;;;5041420;28;20032;-73
2021/05/21 09:09:58;;;;;;;1.67;0.63;;;15.90;61.20;;;;;;5040028;28;20036;-73
2021/05/21 09:12:36;;;;;;;1.75;0.77;;;15.90;60.00;;;;;;5019919;28;20761;-73
2021/05/21 09:15:16;;;;;;;5.78;0.60;;;15.90;60.60;;;;;;5037613;28;20033;-73
2021/05/21 09:17:57;;;;;;;;;;;15.90;59.60;;;;;;5035497;28;20442;-73
2021/05/21 09:20:39;;;;;;;4.57;0.50;;;16.00;59.20;;;;;;5041723;28;20070;-73
2021/05/21 09:23:10;;;;;;;3.97;0.43;;;16.10;59.20;;;;;;5051071;28;20025;-72
2021/05/21 09:25:51;;;;;;;2.97;0.98;;;16.10;58.80;;;;;;5047421;28;20049;-73
2021/05/21 09:28:35;;;;;;;2.53;0.50;;;16.10;58.90;;;;;;5047780;28;20420;-72
2021/05/21 09:31:11;;;;;;;1.73;0.60;;;16.10;59.30;;;;;;5037332;28;20083;-73
2021/05/21 09:33:41;;;;;;;3.50;0.70;;;16.10;59.30;;;;;;5033629;28;20083;-73
2021/05/21 09:36:07;;;;;;;4.60;0.52;;;16.10;59.70;;;;;;5049040;28;20512;-72
2021/05/21 09:38:53;;;;;;;0.45;0.38;;;16.10;59.70;;;;;;5043558;28;20041;-73
2021/05/21 09:41:19;;;;;;;5.88;0.50;;;16.10;59.70;;;;;;5045740;28;20509;-73
2021/05/21 09:44:00;;;;;;;7.50;1.20;;;16.00;59.70;;;;;;5054864;28;20108;-73
2021/05/21 09:46:37;;;;;;;2.97;0.77;;;16.00;59.90;;;;;;5053563;28;20041;-72
2021/05/21 09:49:30;;;;;;;6.50;0.70;;;16.00;60.20;;;;;;5054124;28;20136;-73
2021/05/21 09:51:58;;;;;;;1.40;0.50;;;16.00;60.10;;;;;;5055550;28;20025;-73
2021/05/21 09:54:25;;;;;;;2.03;0.77;;;16.10;60.50;;;;;;5044954;28;20107;-72
2021/05/21 09:57:05;;;;;;;0.98;0.45;;;16.00;60.10;;;;;;5054360;28;20053;-73
2021/05/21 09:59:46;;;;;;;1.25;0.30;;;16.00;60.20;;;;;;5016496;28;20099;-74
2021/05/21 10:02:28;;;;;;;1.58;0.82;;;16.00;60.30;;;;;;5042134;28;20493;-71
2021/05/21 10:04:54;;;;;;;0.98;0.40;;;16.00;60.30;;;;;;5045147;28;20060;-72
2021/05/21 10:07:22;;;;;;;1.33;0.52;;;15.90;60.00;;;;;;5032065;28;20029;-73
2021/05/21 10:09:48;;;;;;;0.90;0.50;;;15.80;60.00;;;;;;5035315;28;20529;-73
2021/05/21 10:12:14;;;;;;;0.40;0.40;;;15.80;60.10;;;;;;5033812;28;20034;-74
2021/05/21 10:14:47;;;;;;;0.77;0.38;;;15.80;60.60;;;;;;5051274;28;20474;-72
2021/05/21 10:17:16;;;;;;;6.03;0.55;;;15.80;60.90;;;;;;5035691;28;20025;-73
2021/05/21 10:19:42;;;;;;;3.05;0.30;;;15.80;60.80;;;;;;5054075;28;20021;-75
2021/05/21 10:22:11;;;;;;;0.98;0.63;;;15.80;61.30;;;;;;5044035;28;20033;-71
2021/05/21 10:24:40;;;;;;;0.75;0.43;;;15.80;61.20;;;;;;5037092;28;20100;-74
2021/05/21 10:27:17;;;;;;;1.77;0.45;;;15.70;61.50;;;;;;5044600;28;20029;-74
2021/05/21 10:29:55;;;;;;;1.27;0.50;;;15.80;61.10;;;;;;5039869;28;20406;-76
2021/05/21 10:32:27;;;;;;;0.73;0.40;;;15.80;61.30;;;;;;5043975;28;20052;-74
2021/05/21 10:34:54;;;;;;;1.90;0.60;;;15.70;61.50;;;;;;5048401;28;20021;-74
2021/05/21 10:37:35;;;;;;;0.60;0.60;;;15.70;62.20;;;;;;5044233;28;20475;-72
2021/05/21 10:40:09;;;;;;;1.65;0.45;;;15.70;62.20;;;;;;5012952;28;20033;-73
2021/05/21 10:42:37;;;;;;;1.20;0.50;;;15.70;62.50;;;;;;5051475;28;20068;-71
2021/05/21 10:45:09;;;;;;;1.92;0.45;;;15.70;63.00;;;;;;5053450;28;20047;-72
2021/05/21 10:47:39;;;;;;;0.40;0.40;;;15.70;62.80;;;;;;5052562;28;20029;-72
2021/05/21 10:50:09;;;;;;;1.08;0.60;;;15.80;62.80;;;;;;5053150;28;20060;-73
2021/05/21 10:52:53;;;;;;;3.10;0.60;;;15.90;63.00;;;;;;5046316;28;20025;-73
2021/05/21 10:55:58;;;;;;;2.42;0.55;;;15.90;63.20;;;;;;5048097;28;20033;-72
2021/05/21 10:58:33;;;;;;;1.42;0.60;;;15.90;63.20;;;;;;5040807;28;20095;-72
2021/05/21 11:01:12;;;;;;;2.00;0.57;;;16.00;63.40;;;;;;5049946;28;20083;-72
2021/05/21 11:04:00;;;;;;;5.40;0.60;;;16.10;62.80;;;;;;5052805;28;20031;-72
2021/05/21 11:06:27;;;;;;;1.27;0.50;;;16.20;62.50;;;;;;5039733;28;20039;-74
2021/05/21 11:09:21;;;;;;;1.25;0.40;;;16.20;62.60;;;;;;5038055;28;20045;-74
2021/05/21 11:11:58;;;;;;;2.13;0.63;;;16.30;62.50;;;;;;5047154;28;20443;-75
2021/05/21 11:14:34;;;;;;;1.85;0.50;;;16.40;62.80;;;;;;5052991;28;20033;-75
2021/05/21 11:17:23;;;;;;;3.97;1.00;;;16.50;62.50;;;;;;5047587;28;20029;-74
2021/05/21 11:19:55;;;;;;;2.15;0.90;;;16.60;62.70;;;;;;5050153;28;20050;-72
2021/05/21 11:22:31;;;;;;;1.17;0.70;;;16.70;62.60;;;;;;5050954;28;20110;-74
2021/05/21 11:25:17;;;;;;;1.98;0.70;;;16.80;62.90;;;;;;5022804;28;20041;-72
2021/05/21 11:27:43;;;;;;;5.88;0.85;;;16.90;62.10;;;;;;5033144;28;20025;-72
2021/05/21 11:30:11;;;;;;;2.50;0.90;;;16.80;61.50;;;;;;5032112;28;20041;-71
2021/05/21 11:32:38;;;;;;;1.27;0.68;;;16.90;62.00;;;;;;5049754;28;20465;-74
2021/05/21 11:35:09;;;;;;;2.13;0.70;;;17.00;61.30;;;;;;5053140;28;20114;-70
2021/05/21 11:37:35;;;;;;;0.52;0.45;;;17.20;61.00;;;;;;5052002;28;20025;-75
2021/05/21 11:40:08;;;;;;;1.38;0.80;;;17.30;60.00;;;;;;5038613;28;20052;-73
2021/05/21 11:42:35;;;;;;;1.00;0.70;;;17.50;60.80;;;;;;5032548;28;20025;-72
2021/05/21 11:45:02;;;;;;;2.67;0.80;;;17.80;59.90;;;;;;5033197;28;20462;-73
2021/05/21 11:47:36;;;;;;;0.93;0.40;;;18.00;59.20;;;;;;5032271;28;20072;-72
2021/05/21 11:50:04;;;;;;;1.58;1.02;;;18.10;58.30;;;;;;5040564;28;20056;-72
2021/05/21 11:52:30;;;;;;;0.70;0.45;;;18.10;58.10;;;;;;5042494;28;20048;-72
2021/05/21 11:54:57;;;;;;;1.02;0.70;;;18.00;58.00;;;;;;5044835;28;20063;-72
2021/05/21 11:57:24;;;;;;;5.00;0.35;;;17.90;56.90;;;;;;5051252;28;20045;-73
2021/05/21 11:59:53;;;;;;;1.10;0.60;;;17.70;57.10;;;;;;5034513;28;20532;-72
2021/05/21 12:02:19;;;;;;;0.88;0.60;;;17.40;58.30;;;;;;5031707;28;20461;-72
2021/05/21 12:04:46;;;;;;;0.50;0.50;;;17.20;57.30;;;;;;5037118;28;20030;-71
2021/05/21 12:07:23;;;;;;;0.95;0.50;;;17.10;57.50;;;;;;5044344;28;20033;-69
2021/05/21 12:10:03;;;;;;;1.10;0.40;;;17.00;56.70;;;;;;5034128;28;20038;-72
2021/05/21 12:12:30;;;;;;;;;;;16.90;57.40;;;;;;5032635;28;20033;-71
2021/05/21 12:15:19;;;;;;;2.85;0.60;;;16.90;57.10;;;;;;5041414;28;19920;-71
2021/05/21 12:17:47;;;;;;;1.10;0.98;;;16.90;56.70;;;;;;5052046;28;20029;-72
2021/05/21 12:20:14;;;;;;;0.60;0.40;;;17.00;56.70;;;;;;5031863;28;20478;-68
2021/05/21 12:23:06;;;;;;;1.27;0.52;;;17.10;56.80;;;;;;5046790;28;20034;-72
2021/05/21 12:25:34;;;;;;;3.67;0.63;;;17.10;57.00;;;;;;5041951;28;20057;-71
2021/05/21 12:28:01;;;;;;;1.98;0.50;;;17.10;57.10;;;;;;5032302;28;20026;-72
2021/05/21 12:30:28;;;;;;;0.95;0.43;;;16.90;56.90;;;;;;5031415;28;20041;-72
2021/05/21 12:32:54;;;;;;;1.15;0.45;;;16.90;56.70;;;;;;5033033;28;20478;-72
2021/05/21 12:35:41;;;;;;;0.63;0.50;;;16.80;56.80;;;;;;5052685;28;20033;-75
2021/05/21 12:38:09;;;;;;;1.40;0.47;;;16.80;57.00;;;;;;5039172;28;20536;-72
2021/05/21 12:40:35;;;;;;;2.30;0.65;;;16.90;56.70;;;;;;5036294;28;20033;-71
2021/05/21 12:43:08;;;;;;;1.63;0.60;;;17.00;56.60;;;;;;5049857;28;20025;-72
2021/05/21 12:45:36;;;;;;;3.42;0.50;;;17.00;55.60;;;;;;5052528;28;20024;-71
2021/05/21 12:48:01;;;;;;;1.40;0.40;;;17.00;55.40;;;;;;5040076;28;20045;-72
2021/05/21 12:50:32;;;;;;;0.50;0.50;;;17.00;55.40;;;;;;5016368;28;20037;-72
2021/05/21 12:52:59;;;;;;;0.80;0.40;;;17.10;55.60;;;;;;5051067;28;20036;-72
2021/05/21 12:55:26;;;;;;;2.22;0.65;;;17.10;55.20;;;;;;5039345;28;20116;-75